sensor_id;sensor_type;location;lat;lon;timestamp;P1;durP1;ratioP1;P2;durP2;ratioP2
37097;SDS011;63608;49.572;12.348;2023-02-15T00:00:11;15.47;;;9.50;;
37097;SDS011;63608;49.572;12.348;2023-02-15T00:02:14;14.47;;;9.90;;
37097;SDS011;63608;49.572;12.348;2023-02-15T00:04:22;10.73;;;8.60;;
37097;SDS011;63608;49.572;12.348;2023-02-15T00:06:46;9.30;;;7.50;;
37097;SDS011;63608;49.572;12.348;2023-02-15T00:08:48;10.73;;;8.10;;
37097;SDS011;63608;49.572;12.348;2023-02-15T00:10:50;16.30;;;11.67;;
37097;SDS011;63608;49.572;12.348;2023-02-15T00:12:54;10.60;;;8.40;;
37097;SDS011;63608;49.572;12.348;2023-02-15T00:14:59;11.80;;;8.80;;
37097;SDS011;63608;49.572;12.348;2023-02-15T00:17:02;15.50;;;9.00;;
37097;SDS011;63608;49.572;12.348;2023-02-15T00:19:06;14.60;;;10.03;;
37097;SDS011;63608;49.572;12.348;2023-02-15T00:21:19;11.77;;;8.80;;
37097;SDS011;63608;49.572;12.348;2023-02-15T00:23:22;14.30;;;9.07;;
37097;SDS011;63608;49.572;12.348;2023-02-15T00:25:26;13.10;;;8.40;;
37097;SDS011;63608;49.572;12.348;2023-02-15T00:27:33;15.57;;;8.83;;
37097;SDS011;63608;49.572;12.348;2023-02-15T00:29:37;44.30;;;10.03;;
37097;SDS011;63608;49.572;12.348;2023-02-15T00:31:40;19.23;;;8.43;;
37097;SDS011;63608;49.572;12.348;2023-02-15T00:33:43;25.37;;;9.70;;
37097;SDS011;63608;49.572;12.348;2023-02-15T00:35:58;13.13;;;9.00;;
37097;SDS011;63608;49.572;12.348;2023-02-15T00:38:06;11.57;;;7.80;;
37097;SDS011;63608;49.572;12.348;2023-02-15T00:40:10;13.40;;;8.77;;
37097;SDS011;63608;49.572;12.348;2023-02-15T00:42:23;12.50;;;8.70;;
37097;SDS011;63608;49.572;12.348;2023-02-15T00:44:25;14.60;;;8.60;;
37097;SDS011;63608;49.572;12.348;2023-02-15T00:46:29;12.13;;;8.10;;
37097;SDS011;63608;49.572;12.348;2023-02-15T00:48:32;24.07;;;8.40;;
37097;SDS011;63608;49.572;12.348;2023-02-15T00:50:34;14.23;;;8.43;;
37097;SDS011;63608;49.572;12.348;2023-02-15T00:52:36;14.20;;;8.43;;
37097;SDS011;63608;49.572;12.348;2023-02-15T00:54:43;13.37;;;8.70;;
37097;SDS011;63608;49.572;12.348;2023-02-15T00:56:48;10.97;;;7.80;;
37097;SDS011;63608;49.572;12.348;2023-02-15T00:58:50;12.67;;;8.90;;
37097;SDS011;63608;49.572;12.348;2023-02-15T01:00:53;13.10;;;8.50;;
37097;SDS011;63608;49.572;12.348;2023-02-15T01:03:01;14.17;;;9.10;;
37097;SDS011;63608;49.572;12.348;2023-02-15T01:05:05;10.83;;;8.37;;
37097;SDS011;63608;49.572;12.348;2023-02-15T01:07:10;13.40;;;7.93;;
37097;SDS011;63608;49.572;12.348;2023-02-15T01:09:12;14.07;;;9.50;;
37097;SDS011;63608;49.572;12.348;2023-02-15T01:11:20;18.17;;;10.10;;
37097;SDS011;63608;49.572;12.348;2023-02-15T01:13:23;14.67;;;8.67;;
37097;SDS011;63608;49.572;12.348;2023-02-15T01:15:26;15.03;;;9.00;;
37097;SDS011;63608;49.572;12.348;2023-02-15T01:17:30;15.80;;;7.90;;
37097;SDS011;63608;49.572;12.348;2023-02-15T01:19:54;10.00;;;7.90;;
37097;SDS011;63608;49.572;12.348;2023-02-15T01:21:59;23.27;;;8.60;;
37097;SDS011;63608;49.572;12.348;2023-02-15T01:24:03;14.67;;;9.30;;
37097;SDS011;63608;49.572;12.348;2023-02-15T01:26:05;15.90;;;9.03;;
37097;SDS011;63608;49.572;12.348;2023-02-15T01:28:08;11.13;;;7.93;;
37097;SDS011;63608;49.572;12.348;2023-02-15T01:30:11;11.03;;;7.90;;
37097;SDS011;63608;49.572;12.348;2023-02-15T01:32:14;12.13;;;8.37;;
37097;SDS011;63608;49.572;12.348;2023-02-15T01:34:19;9.43;;;7.43;;
37097;SDS011;63608;49.572;12.348;2023-02-15T01:36:24;11.17;;;8.50;;
37097;SDS011;63608;49.572;12.348;2023-02-15T01:38:42;13.40;;;8.97;;
37097;SDS011;63608;49.572;12.348;2023-02-15T01:40:44;21.90;;;9.90;;
37097;SDS011;63608;49.572;12.348;2023-02-15T01:42:49;12.30;;;9.10;;
37097;SDS011;63608;49.572;12.348;2023-02-15T01:44:59;11.27;;;7.57;;
37097;SDS011;63608;49.572;12.348;2023-02-15T01:47:07;10.90;;;8.30;;
37097;SDS011;63608;49.572;12.348;2023-02-15T01:49:10;10.60;;;7.70;;
37097;SDS011;63608;49.572;12.348;2023-02-15T01:51:15;10.03;;;7.80;;
37097;SDS011;63608;49.572;12.348;2023-02-15T01:53:23;11.77;;;8.47;;
37097;SDS011;63608;49.572;12.348;2023-02-15T01:55:28;17.67;;;8.40;;
37097;SDS011;63608;49.572;12.348;2023-02-15T01:57:33;11.33;;;8.20;;
37097;SDS011;63608;49.572;12.348;2023-02-15T01:59:43;12.60;;;8.23;;
37097;SDS011;63608;49.572;12.348;2023-02-15T02:01:51;11.77;;;8.30;;
37097;SDS011;63608;49.572;12.348;2023-02-15T02:03:56;11.93;;;8.20;;
37097;SDS011;63608;49.572;12.348;2023-02-15T02:06:01;11.03;;;7.57;;
37097;SDS011;63608;49.572;12.348;2023-02-15T02:08:06;10.60;;;7.60;;
37097;SDS011;63608;49.572;12.348;2023-02-15T02:12:36;10.00;;;7.80;;
37097;SDS011;63608;49.572;12.348;2023-02-15T02:14:39;15.00;;;7.93;;
37097;SDS011;63608;49.572;12.348;2023-02-15T02:16:45;10.40;;;7.77;;
37097;SDS011;63608;49.572;12.348;2023-02-15T02:18:54;10.03;;;7.90;;
37097;SDS011;63608;49.572;12.348;2023-02-15T02:23:52;12.73;;;8.43;;
37097;SDS011;63608;49.572;12.348;2023-02-15T02:26:14;12.10;;;8.03;;
37097;SDS011;63608;49.572;12.348;2023-02-15T02:28:46;15.00;;;9.30;;
37097;SDS011;63608;49.572;12.348;2023-02-15T02:31:23;11.07;;;8.43;;
37097;SDS011;63608;49.572;12.348;2023-02-15T02:33:44;12.70;;;7.90;;
37097;SDS011;63608;49.572;12.348;2023-02-15T02:35:56;12.33;;;8.70;;
37097;SDS011;63608;49.572;12.348;2023-02-15T02:38:04;20.50;;;8.40;;
37097;SDS011;63608;49.572;12.348;2023-02-15T02:40:12;15.37;;;8.77;;
37097;SDS011;63608;49.572;12.348;2023-02-15T02:42:24;14.43;;;8.27;;
37097;SDS011;63608;49.572;12.348;2023-02-15T02:44:32;20.27;;;9.00;;
37097;SDS011;63608;49.572;12.348;2023-02-15T02:46:39;16.30;;;8.30;;
37097;SDS011;63608;49.572;12.348;2023-02-15T02:48:49;16.30;;;8.17;;
37097;SDS011;63608;49.572;12.348;2023-02-15T02:50:55;11.40;;;8.13;;
37097;SDS011;63608;49.572;12.348;2023-02-15T02:52:58;10.50;;;8.27;;
37097;SDS011;63608;49.572;12.348;2023-02-15T02:55:12;9.63;;;7.63;;
37097;SDS011;63608;49.572;12.348;2023-02-15T02:57:21;13.67;;;7.83;;
37097;SDS011;63608;49.572;12.348;2023-02-15T02:59:27;12.17;;;8.27;;
37097;SDS011;63608;49.572;12.348;2023-02-15T03:01:32;8.40;;;7.13;;
37097;SDS011;63608;49.572;12.348;2023-02-15T03:03:38;21.33;;;8.33;;
37097;SDS011;63608;49.572;12.348;2023-02-15T03:05:46;16.10;;;7.93;;
37097;SDS011;63608;49.572;12.348;2023-02-15T03:07:50;11.67;;;8.00;;
37097;SDS011;63608;49.572;12.348;2023-02-15T03:09:54;10.47;;;8.30;;
37097;SDS011;63608;49.572;12.348;2023-02-15T03:12:00;12.70;;;8.30;;
37097;SDS011;63608;49.572;12.348;2023-02-15T03:14:35;8.63;;;7.10;;
37097;SDS011;63608;49.572;12.348;2023-02-15T03:16:38;21.27;;;8.27;;
37097;SDS011;63608;49.572;12.348;2023-02-15T03:18:43;14.23;;;9.00;;
37097;SDS011;63608;49.572;12.348;2023-02-15T03:20:54;11.03;;;8.17;;
37097;SDS011;63608;49.572;12.348;2023-02-15T03:23:03;10.60;;;7.80;;
37097;SDS011;63608;49.572;12.348;2023-02-15T03:25:09;12.97;;;8.30;;
37097;SDS011;63608;49.572;12.348;2023-02-15T03:27:14;10.47;;;7.70;;
37097;SDS011;63608;49.572;12.348;2023-02-15T03:29:19;14.30;;;8.60;;
37097;SDS011;63608;49.572;12.348;2023-02-15T03:31:24;12.87;;;7.87;;
37097;SDS011;63608;49.572;12.348;2023-02-15T03:33:28;10.87;;;7.90;;
37097;SDS011;63608;49.572;12.348;2023-02-15T03:35:31;10.73;;;8.00;;
37097;SDS011;63608;49.572;12.348;2023-02-15T03:37:40;11.63;;;7.90;;
37097;SDS011;63608;49.572;12.348;2023-02-15T03:39:48;9.83;;;6.97;;
37097;SDS011;63608;49.572;12.348;2023-02-15T03:42:13;9.10;;;6.93;;
37097;SDS011;63608;49.572;12.348;2023-02-15T03:46:54;10.87;;;7.37;;
37097;SDS011;63608;49.572;12.348;2023-02-15T03:49:02;10.30;;;7.73;;
37097;SDS011;63608;49.572;12.348;2023-02-15T03:51:07;9.30;;;6.80;;
37097;SDS011;63608;49.572;12.348;2023-02-15T03:53:35;12.67;;;7.50;;
37097;SDS011;63608;49.572;12.348;2023-02-15T03:55:45;10.47;;;7.13;;
37097;SDS011;63608;49.572;12.348;2023-02-15T03:58:05;12.60;;;7.30;;
37097;SDS011;63608;49.572;12.348;2023-02-15T04:00:25;11.20;;;7.30;;
37097;SDS011;63608;49.572;12.348;2023-02-15T04:02:47;9.90;;;7.20;;
37097;SDS011;63608;49.572;12.348;2023-02-15T04:05:01;10.83;;;7.30;;
37097;SDS011;63608;49.572;12.348;2023-02-15T04:07:04;10.03;;;7.10;;
37097;SDS011;63608;49.572;12.348;2023-02-15T04:09:10;17.30;;;9.20;;
37097;SDS011;63608;49.572;12.348;2023-02-15T04:11:30;11.13;;;7.00;;
37097;SDS011;63608;49.572;12.348;2023-02-15T04:13:33;12.30;;;7.70;;
37097;SDS011;63608;49.572;12.348;2023-02-15T04:15:35;10.87;;;7.37;;
37097;SDS011;63608;49.572;12.348;2023-02-15T04:17:55;10.03;;;7.20;;
37097;SDS011;63608;49.572;12.348;2023-02-15T04:19:59;15.47;;;7.50;;
37097;SDS011;63608;49.572;12.348;2023-02-15T04:22:20;11.50;;;7.63;;
37097;SDS011;63608;49.572;12.348;2023-02-15T04:24:41;12.40;;;7.43;;
37097;SDS011;63608;49.572;12.348;2023-02-15T04:27:02;10.80;;;6.70;;
37097;SDS011;63608;49.572;12.348;2023-02-15T04:29:07;14.47;;;7.20;;
37097;SDS011;63608;49.572;12.348;2023-02-15T04:31:09;16.80;;;7.67;;
37097;SDS011;63608;49.572;12.348;2023-02-15T04:33:12;13.40;;;8.20;;
37097;SDS011;63608;49.572;12.348;2023-02-15T04:35:14;13.80;;;8.10;;
37097;SDS011;63608;49.572;12.348;2023-02-15T04:37:17;11.40;;;7.47;;
37097;SDS011;63608;49.572;12.348;2023-02-15T04:39:19;10.00;;;7.30;;
37097;SDS011;63608;49.572;12.348;2023-02-15T04:41:23;13.60;;;7.87;;
37097;SDS011;63608;49.572;12.348;2023-02-15T04:43:26;11.33;;;7.20;;
37097;SDS011;63608;49.572;12.348;2023-02-15T04:45:30;11.67;;;8.17;;
37097;SDS011;63608;49.572;12.348;2023-02-15T04:47:32;11.67;;;7.67;;
37097;SDS011;63608;49.572;12.348;2023-02-15T04:49:35;11.83;;;8.13;;
37097;SDS011;63608;49.572;12.348;2023-02-15T04:51:39;13.13;;;8.03;;
37097;SDS011;63608;49.572;12.348;2023-02-15T04:53:42;12.60;;;8.03;;
37097;SDS011;63608;49.572;12.348;2023-02-15T04:55:44;11.90;;;7.83;;
37097;SDS011;63608;49.572;12.348;2023-02-15T04:57:51;10.00;;;7.53;;
37097;SDS011;63608;49.572;12.348;2023-02-15T04:59:53;11.77;;;7.40;;
37097;SDS011;63608;49.572;12.348;2023-02-15T05:01:57;9.43;;;6.90;;
37097;SDS011;63608;49.572;12.348;2023-02-15T05:04:01;10.30;;;7.90;;
37097;SDS011;63608;49.572;12.348;2023-02-15T05:06:04;10.40;;;7.27;;
37097;SDS011;63608;49.572;12.348;2023-02-15T05:08:07;11.43;;;8.00;;
37097;SDS011;63608;49.572;12.348;2023-02-15T05:10:13;13.00;;;8.33;;
37097;SDS011;63608;49.572;12.348;2023-02-15T05:12:15;11.90;;;8.40;;
37097;SDS011;63608;49.572;12.348;2023-02-15T05:14:20;10.27;;;7.60;;
37097;SDS011;63608;49.572;12.348;2023-02-15T05:16:23;12.40;;;7.43;;
37097;SDS011;63608;49.572;12.348;2023-02-15T05:18:25;15.20;;;8.53;;
37097;SDS011;63608;49.572;12.348;2023-02-15T05:20:28;14.30;;;9.33;;
37097;SDS011;63608;49.572;12.348;2023-02-15T05:22:32;10.80;;;7.60;;
37097;SDS011;63608;49.572;12.348;2023-02-15T05:24:34;10.80;;;7.73;;
37097;SDS011;63608;49.572;12.348;2023-02-15T05:26:55;12.87;;;8.20;;
37097;SDS011;63608;49.572;12.348;2023-02-15T05:29:16;12.73;;;8.20;;
37097;SDS011;63608;49.572;12.348;2023-02-15T05:31:24;12.67;;;8.20;;
37097;SDS011;63608;49.572;12.348;2023-02-15T05:33:26;13.80;;;8.83;;
37097;SDS011;63608;49.572;12.348;2023-02-15T05:35:29;14.30;;;9.10;;
37097;SDS011;63608;49.572;12.348;2023-02-15T05:37:32;13.83;;;8.70;;
37097;SDS011;63608;49.572;12.348;2023-02-15T05:39:35;13.30;;;8.60;;
37097;SDS011;63608;49.572;12.348;2023-02-15T05:41:38;11.67;;;7.90;;
37097;SDS011;63608;49.572;12.348;2023-02-15T05:43:40;12.73;;;9.20;;
37097;SDS011;63608;49.572;12.348;2023-02-15T05:46:11;12.37;;;8.50;;
37097;SDS011;63608;49.572;12.348;2023-02-15T05:48:17;11.23;;;8.60;;
37097;SDS011;63608;49.572;12.348;2023-02-15T05:50:20;9.97;;;7.47;;
37097;SDS011;63608;49.572;12.348;2023-02-15T05:52:22;10.70;;;8.20;;
37097;SDS011;63608;49.572;12.348;2023-02-15T05:54:26;8.77;;;7.10;;
37097;SDS011;63608;49.572;12.348;2023-02-15T05:56:29;9.57;;;8.20;;
37097;SDS011;63608;49.572;12.348;2023-02-15T05:58:46;8.37;;;7.40;;
37097;SDS011;63608;49.572;12.348;2023-02-15T06:00:48;16.73;;;12.40;;
37097;SDS011;63608;49.572;12.348;2023-02-15T06:02:51;7.23;;;6.47;;
37097;SDS011;63608;49.572;12.348;2023-02-15T06:04:57;10.30;;;7.87;;
37097;SDS011;63608;49.572;12.348;2023-02-15T06:07:00;10.70;;;7.90;;
37097;SDS011;63608;49.572;12.348;2023-02-15T06:09:06;8.33;;;6.70;;
37097;SDS011;63608;49.572;12.348;2023-02-15T06:11:08;9.57;;;7.77;;
37097;SDS011;63608;49.572;12.348;2023-02-15T06:13:10;15.03;;;10.23;;
37097;SDS011;63608;49.572;12.348;2023-02-15T06:15:13;8.00;;;6.70;;
37097;SDS011;63608;49.572;12.348;2023-02-15T06:17:15;8.77;;;6.93;;
37097;SDS011;63608;49.572;12.348;2023-02-15T06:19:21;8.60;;;6.83;;
37097;SDS011;63608;49.572;12.348;2023-02-15T06:21:26;10.90;;;7.43;;
37097;SDS011;63608;49.572;12.348;2023-02-15T06:23:29;9.57;;;7.13;;
37097;SDS011;63608;49.572;12.348;2023-02-15T06:25:34;16.20;;;8.17;;
37097;SDS011;63608;49.572;12.348;2023-02-15T06:27:37;17.63;;;8.83;;
37097;SDS011;63608;49.572;12.348;2023-02-15T06:29:39;13.13;;;8.57;;
37097;SDS011;63608;49.572;12.348;2023-02-15T06:31:41;14.80;;;8.33;;
37097;SDS011;63608;49.572;12.348;2023-02-15T06:33:44;14.53;;;7.70;;
37097;SDS011;63608;49.572;12.348;2023-02-15T06:35:46;10.40;;;8.00;;
37097;SDS011;63608;49.572;12.348;2023-02-15T06:37:51;17.03;;;9.27;;
37097;SDS011;63608;49.572;12.348;2023-02-15T06:39:56;14.03;;;8.40;;
37097;SDS011;63608;49.572;12.348;2023-02-15T06:41:58;10.87;;;8.07;;
37097;SDS011;63608;49.572;12.348;2023-02-15T06:44:04;11.30;;;7.93;;
37097;SDS011;63608;49.572;12.348;2023-02-15T06:46:07;10.90;;;7.60;;
37097;SDS011;63608;49.572;12.348;2023-02-15T06:48:10;9.50;;;7.40;;
37097;SDS011;63608;49.572;12.348;2023-02-15T06:50:14;9.10;;;6.83;;
37097;SDS011;63608;49.572;12.348;2023-02-15T06:52:16;11.87;;;7.10;;
37097;SDS011;63608;49.572;12.348;2023-02-15T06:54:22;11.97;;;7.60;;
37097;SDS011;63608;49.572;12.348;2023-02-15T06:56:24;12.03;;;8.20;;
37097;SDS011;63608;49.572;12.348;2023-02-15T06:58:28;10.60;;;7.17;;
37097;SDS011;63608;49.572;12.348;2023-02-15T07:00:30;27.90;;;18.73;;
37097;SDS011;63608;49.572;12.348;2023-02-15T07:02:33;9.27;;;7.57;;
37097;SDS011;63608;49.572;12.348;2023-02-15T07:04:38;19.63;;;13.37;;
37097;SDS011;63608;49.572;12.348;2023-02-15T07:06:41;16.60;;;12.07;;
37097;SDS011;63608;49.572;12.348;2023-02-15T07:08:49;12.70;;;9.30;;
37097;SDS011;63608;49.572;12.348;2023-02-15T07:10:53;12.83;;;8.47;;
37097;SDS011;63608;49.572;12.348;2023-02-15T07:13:22;31.63;;;9.00;;
37097;SDS011;63608;49.572;12.348;2023-02-15T07:15:23;44.43;;;18.00;;
37097;SDS011;63608;49.572;12.348;2023-02-15T07:17:25;53.30;;;33.20;;
37097;SDS011;63608;49.572;12.348;2023-02-15T07:19:28;50.43;;;25.30;;
37097;SDS011;63608;49.572;12.348;2023-02-15T07:21:30;23.87;;;14.30;;
37097;SDS011;63608;49.572;12.348;2023-02-15T07:23:34;22.87;;;13.20;;
37097;SDS011;63608;49.572;12.348;2023-02-15T07:25:36;21.77;;;11.30;;
37097;SDS011;63608;49.572;12.348;2023-02-15T07:27:41;22.00;;;10.20;;
37097;SDS011;63608;49.572;12.348;2023-02-15T07:29:44;16.03;;;9.63;;
37097;SDS011;63608;49.572;12.348;2023-02-15T07:31:48;13.53;;;8.93;;
37097;SDS011;63608;49.572;12.348;2023-02-15T07:33:50;10.17;;;7.77;;
37097;SDS011;63608;49.572;12.348;2023-02-15T07:35:53;14.70;;;8.50;;
37097;SDS011;63608;49.572;12.348;2023-02-15T07:37:57;12.03;;;8.30;;
37097;SDS011;63608;49.572;12.348;2023-02-15T07:40:00;13.03;;;8.60;;
37097;SDS011;63608;49.572;12.348;2023-02-15T07:42:02;11.43;;;8.67;;
37097;SDS011;63608;49.572;12.348;2023-02-15T07:44:13;12.43;;;8.10;;
37097;SDS011;63608;49.572;12.348;2023-02-15T07:46:17;9.70;;;7.67;;
37097;SDS011;63608;49.572;12.348;2023-02-15T07:48:21;12.07;;;8.13;;
37097;SDS011;63608;49.572;12.348;2023-02-15T07:50:26;10.97;;;7.60;;
37097;SDS011;63608;49.572;12.348;2023-02-15T07:52:29;9.97;;;7.33;;
37097;SDS011;63608;49.572;12.348;2023-02-15T07:54:35;11.83;;;7.80;;
37097;SDS011;63608;49.572;12.348;2023-02-15T07:56:37;12.87;;;8.00;;
37097;SDS011;63608;49.572;12.348;2023-02-15T07:58:43;9.37;;;7.57;;
37097;SDS011;63608;49.572;12.348;2023-02-15T08:00:59;9.47;;;6.83;;
37097;SDS011;63608;49.572;12.348;2023-02-15T08:03:05;11.17;;;8.37;;
37097;SDS011;63608;49.572;12.348;2023-02-15T08:05:17;13.43;;;9.40;;
37097;SDS011;63608;49.572;12.348;2023-02-15T08:07:21;13.07;;;8.60;;
37097;SDS011;63608;49.572;12.348;2023-02-15T08:09:23;11.30;;;7.63;;
37097;SDS011;63608;49.572;12.348;2023-02-15T08:11:25;14.70;;;8.80;;
37097;SDS011;63608;49.572;12.348;2023-02-15T08:13:33;13.60;;;8.40;;
37097;SDS011;63608;49.572;12.348;2023-02-15T08:15:53;11.63;;;7.60;;
37097;SDS011;63608;49.572;12.348;2023-02-15T08:17:59;11.77;;;7.80;;
37097;SDS011;63608;49.572;12.348;2023-02-15T08:20:01;12.47;;;9.13;;
37097;SDS011;63608;49.572;12.348;2023-02-15T08:22:04;11.27;;;8.20;;
37097;SDS011;63608;49.572;12.348;2023-02-15T08:24:08;13.17;;;8.50;;
37097;SDS011;63608;49.572;12.348;2023-02-15T08:26:13;21.20;;;12.13;;
37097;SDS011;63608;49.572;12.348;2023-02-15T08:28:20;9.90;;;7.73;;
37097;SDS011;63608;49.572;12.348;2023-02-15T08:30:22;11.57;;;8.53;;
37097;SDS011;63608;49.572;12.348;2023-02-15T08:32:27;32.73;;;19.73;;
37097;SDS011;63608;49.572;12.348;2023-02-15T08:34:34;10.60;;;8.00;;
37097;SDS011;63608;49.572;12.348;2023-02-15T08:36:37;12.80;;;8.70;;
37097;SDS011;63608;49.572;12.348;2023-02-15T08:38:41;11.77;;;9.20;;
37097;SDS011;63608;49.572;12.348;2023-02-15T08:40:43;15.10;;;9.37;;
37097;SDS011;63608;49.572;12.348;2023-02-15T08:42:46;13.60;;;8.27;;
37097;SDS011;63608;49.572;12.348;2023-02-15T08:44:50;11.53;;;8.37;;
37097;SDS011;63608;49.572;12.348;2023-02-15T08:46:53;13.77;;;9.27;;
37097;SDS011;63608;49.572;12.348;2023-02-15T08:48:58;12.70;;;9.13;;
37097;SDS011;63608;49.572;12.348;2023-02-15T08:51:08;10.83;;;7.90;;
37097;SDS011;63608;49.572;12.348;2023-02-15T08:53:12;12.87;;;9.33;;
37097;SDS011;63608;49.572;12.348;2023-02-15T08:55:20;12.07;;;8.53;;
37097;SDS011;63608;49.572;12.348;2023-02-15T08:57:27;12.57;;;8.77;;
37097;SDS011;63608;49.572;12.348;2023-02-15T08:59:30;12.80;;;8.33;;
37097;SDS011;63608;49.572;12.348;2023-02-15T09:01:33;13.97;;;9.10;;
37097;SDS011;63608;49.572;12.348;2023-02-15T09:03:37;12.00;;;8.37;;
37097;SDS011;63608;49.572;12.348;2023-02-15T09:05:42;10.90;;;8.00;;
37097;SDS011;63608;49.572;12.348;2023-02-15T09:07:50;12.50;;;9.20;;
37097;SDS011;63608;49.572;12.348;2023-02-15T09:09:56;12.23;;;8.80;;
37097;SDS011;63608;49.572;12.348;2023-02-15T09:12:00;13.17;;;8.67;;
37097;SDS011;63608;49.572;12.348;2023-02-15T09:14:03;12.50;;;9.37;;
37097;SDS011;63608;49.572;12.348;2023-02-15T09:16:08;14.70;;;10.30;;
37097;SDS011;63608;49.572;12.348;2023-02-15T09:18:11;13.47;;;9.70;;
37097;SDS011;63608;49.572;12.348;2023-02-15T09:20:17;13.00;;;8.90;;
37097;SDS011;63608;49.572;12.348;2023-02-15T09:22:20;12.37;;;9.23;;
37097;SDS011;63608;49.572;12.348;2023-02-15T09:24:24;11.00;;;8.60;;
37097;SDS011;63608;49.572;12.348;2023-02-15T09:26:29;11.33;;;9.03;;
37097;SDS011;63608;49.572;12.348;2023-02-15T09:28:36;12.40;;;8.60;;
37097;SDS011;63608;49.572;12.348;2023-02-15T09:30:40;13.70;;;9.27;;
37097;SDS011;63608;49.572;12.348;2023-02-15T09:32:45;14.57;;;9.77;;
37097;SDS011;63608;49.572;12.348;2023-02-15T09:34:48;13.13;;;9.10;;
37097;SDS011;63608;49.572;12.348;2023-02-15T09:36:51;12.70;;;9.47;;
37097;SDS011;63608;49.572;12.348;2023-02-15T09:38:56;13.13;;;10.30;;
37097;SDS011;63608;49.572;12.348;2023-02-15T09:41:06;11.80;;;8.70;;
37097;SDS011;63608;49.572;12.348;2023-02-15T09:43:18;9.63;;;7.90;;
37097;SDS011;63608;49.572;12.348;2023-02-15T09:45:32;12.73;;;9.27;;
37097;SDS011;63608;49.572;12.348;2023-02-15T09:47:50;12.23;;;9.20;;
37097;SDS011;63608;49.572;12.348;2023-02-15T09:50:15;11.60;;;8.77;;
37097;SDS011;63608;49.572;12.348;2023-02-15T09:52:29;12.10;;;9.20;;
37097;SDS011;63608;49.572;12.348;2023-02-15T09:54:46;14.50;;;10.30;;
37097;SDS011;63608;49.572;12.348;2023-02-15T09:56:57;12.67;;;9.70;;
37097;SDS011;63608;49.572;12.348;2023-02-15T09:59:03;15.30;;;10.40;;
37097;SDS011;63608;49.572;12.348;2023-02-15T10:01:14;12.37;;;9.83;;
37097;SDS011;63608;49.572;12.348;2023-02-15T10:03:25;11.40;;;9.37;;
37097;SDS011;63608;49.572;12.348;2023-02-15T10:05:47;13.20;;;9.63;;
37097;SDS011;63608;49.572;12.348;2023-02-15T10:10:24;14.70;;;9.90;;
37097;SDS011;63608;49.572;12.348;2023-02-15T10:12:46;12.30;;;9.10;;
37097;SDS011;63608;49.572;12.348;2023-02-15T10:15:04;13.73;;;10.07;;
37097;SDS011;63608;49.572;12.348;2023-02-15T10:17:35;14.17;;;10.57;;
37097;SDS011;63608;49.572;12.348;2023-02-15T10:19:46;14.60;;;10.60;;
37097;SDS011;63608;49.572;12.348;2023-02-15T10:21:57;15.83;;;12.07;;
37097;SDS011;63608;49.572;12.348;2023-02-15T10:24:08;17.50;;;12.73;;
37097;SDS011;63608;49.572;12.348;2023-02-15T10:26:28;47.53;;;26.47;;
37097;SDS011;63608;49.572;12.348;2023-02-15T10:28:38;18.43;;;12.77;;
37097;SDS011;63608;49.572;12.348;2023-02-15T10:30:47;15.20;;;11.57;;
37097;SDS011;63608;49.572;12.348;2023-02-15T10:32:53;14.90;;;11.47;;
37097;SDS011;63608;49.572;12.348;2023-02-15T10:35:01;13.77;;;10.93;;
37097;SDS011;63608;49.572;12.348;2023-02-15T10:37:17;15.07;;;11.67;;
37097;SDS011;63608;49.572;12.348;2023-02-15T10:39:38;17.33;;;12.20;;
37097;SDS011;63608;49.572;12.348;2023-02-15T10:41:47;19.00;;;12.90;;
37097;SDS011;63608;49.572;12.348;2023-02-15T10:46:23;50.10;;;32.00;;
37097;SDS011;63608;49.572;12.348;2023-02-15T10:48:45;30.73;;;20.17;;
37097;SDS011;63608;49.572;12.348;2023-02-15T10:51:19;29.07;;;18.47;;
37097;SDS011;63608;49.572;12.348;2023-02-15T10:53:34;12.03;;;9.77;;
37097;SDS011;63608;49.572;12.348;2023-02-15T10:55:47;23.93;;;14.63;;
37097;SDS011;63608;49.572;12.348;2023-02-15T10:57:55;27.13;;;17.20;;
37097;SDS011;63608;49.572;12.348;2023-02-15T11:00:07;19.70;;;13.93;;
37097;SDS011;63608;49.572;12.348;2023-02-15T11:02:15;20.70;;;14.03;;
37097;SDS011;63608;49.572;12.348;2023-02-15T11:04:30;17.50;;;12.27;;
37097;SDS011;63608;49.572;12.348;2023-02-15T11:06:42;15.23;;;11.10;;
37097;SDS011;63608;49.572;12.348;2023-02-15T11:08:49;13.70;;;10.60;;
37097;SDS011;63608;49.572;12.348;2023-02-15T11:10:54;17.93;;;12.80;;
37097;SDS011;63608;49.572;12.348;2023-02-15T11:12:59;16.30;;;12.73;;
37097;SDS011;63608;49.572;12.348;2023-02-15T11:15:11;15.57;;;11.97;;
37097;SDS011;63608;49.572;12.348;2023-02-15T11:17:18;15.90;;;11.97;;
37097;SDS011;63608;49.572;12.348;2023-02-15T11:19:27;15.67;;;11.43;;
37097;SDS011;63608;49.572;12.348;2023-02-15T11:21:34;18.30;;;13.17;;
37097;SDS011;63608;49.572;12.348;2023-02-15T11:23:40;19.30;;;14.37;;
37097;SDS011;63608;49.572;12.348;2023-02-15T11:25:46;17.70;;;13.10;;
37097;SDS011;63608;49.572;12.348;2023-02-15T11:27:56;17.60;;;12.30;;
37097;SDS011;63608;49.572;12.348;2023-02-15T11:29:59;15.93;;;12.20;;
37097;SDS011;63608;49.572;12.348;2023-02-15T11:32:12;14.33;;;10.70;;
37097;SDS011;63608;49.572;12.348;2023-02-15T11:34:18;14.90;;;10.70;;
37097;SDS011;63608;49.572;12.348;2023-02-15T11:36:22;16.57;;;11.70;;
37097;SDS011;63608;49.572;12.348;2023-02-15T11:38:28;13.63;;;10.80;;
37097;SDS011;63608;49.572;12.348;2023-02-15T11:40:33;13.27;;;10.53;;
37097;SDS011;63608;49.572;12.348;2023-02-15T11:42:38;13.07;;;10.57;;
37097;SDS011;63608;49.572;12.348;2023-02-15T11:44:41;15.23;;;11.03;;
37097;SDS011;63608;49.572;12.348;2023-02-15T11:46:56;13.17;;;11.03;;
37097;SDS011;63608;49.572;12.348;2023-02-15T11:49:09;15.63;;;11.10;;
37097;SDS011;63608;49.572;12.348;2023-02-15T11:51:22;14.37;;;11.00;;
37097;SDS011;63608;49.572;12.348;2023-02-15T11:53:28;13.63;;;10.30;;
37097;SDS011;63608;49.572;12.348;2023-02-15T11:55:34;14.07;;;11.20;;
37097;SDS011;63608;49.572;12.348;2023-02-15T11:57:37;13.47;;;11.03;;
37097;SDS011;63608;49.572;12.348;2023-02-15T11:59:43;15.27;;;11.63;;
37097;SDS011;63608;49.572;12.348;2023-02-15T12:01:48;13.80;;;10.50;;
37097;SDS011;63608;49.572;12.348;2023-02-15T12:04:04;16.23;;;11.70;;
37097;SDS011;63608;49.572;12.348;2023-02-15T12:06:13;14.70;;;10.90;;
37097;SDS011;63608;49.572;12.348;2023-02-15T12:08:21;12.83;;;10.50;;
37097;SDS011;63608;49.572;12.348;2023-02-15T12:10:25;15.23;;;11.07;;
37097;SDS011;63608;49.572;12.348;2023-02-15T12:12:31;12.03;;;10.47;;
37097;SDS011;63608;49.572;12.348;2023-02-15T12:14:37;15.30;;;11.37;;
37097;SDS011;63608;49.572;12.348;2023-02-15T12:16:49;15.83;;;11.97;;
37097;SDS011;63608;49.572;12.348;2023-02-15T12:18:53;14.97;;;10.90;;
37097;SDS011;63608;49.572;12.348;2023-02-15T12:21:02;13.83;;;11.00;;
37097;SDS011;63608;49.572;12.348;2023-02-15T12:23:12;16.03;;;12.20;;
37097;SDS011;63608;49.572;12.348;2023-02-15T12:30:29;15.10;;;10.77;;
37097;SDS011;63608;49.572;12.348;2023-02-15T12:32:37;14.47;;;11.60;;
37097;SDS011;63608;49.572;12.348;2023-02-15T12:34:50;13.17;;;10.77;;
37097;SDS011;63608;49.572;12.348;2023-02-15T12:36:55;12.40;;;10.00;;
37097;SDS011;63608;49.572;12.348;2023-02-15T12:39:05;13.80;;;10.30;;